createdAt,value
2022-10-11T00:02:12.975Z,3.17
2022-10-11T00:05:17.675Z,3.78
2022-10-11T00:08:22.276Z,3.97
2022-10-11T00:11:27.206Z,3.38
2022-10-11T00:14:34.006Z,3.38
2022-10-11T00:17:38.783Z,4.03
2022-10-11T00:20:43.296Z,3.67
2022-10-11T00:23:48.592Z,2.85
2022-10-11T00:26:52.827Z,2.92
2022-10-11T00:29:57.287Z,2.97
2022-10-11T00:33:01.655Z,2.92
2022-10-11T00:36:07.759Z,3.53
2022-10-11T00:39:14.494Z,4.15
2022-10-11T00:42:19.298Z,3.80
2022-10-11T00:45:26.737Z,2.35
2022-10-11T00:48:42.958Z,4.30
2022-10-11T00:51:58.547Z,3.83
2022-10-11T00:55:13.430Z,2.53
2022-10-11T00:58:18.609Z,2.50
2022-10-11T01:01:22.768Z,4.03
2022-10-11T01:04:27.472Z,3.83
2022-10-11T01:07:33.338Z,4.57
2022-10-11T01:10:37.729Z,3.50
2022-10-11T01:14:09.670Z,2.95
2022-10-11T01:17:35.772Z,3.80
2022-10-11T01:20:49.421Z,3.35
2022-10-11T01:24:29.083Z,3.95
2022-10-11T01:27:54.842Z,3.50
2022-10-11T01:31:26.644Z,5.15
2022-10-11T01:34:33.808Z,3.33
2022-10-11T01:37:43.358Z,3.50
2022-10-11T01:40:52.862Z,3.22
2022-10-11T01:44:01.733Z,2.67
2022-10-11T01:47:06.331Z,3.15
2022-10-11T01:50:45.489Z,3.65
2022-10-11T01:54:07.562Z,4.05
2022-10-11T01:57:51.058Z,3.50
2022-10-11T02:01:02.436Z,2.58
2022-10-11T02:04:18.899Z,2.72
2022-10-11T02:07:24.494Z,2.58
2022-10-11T02:10:46.150Z,2.97
2022-10-11T02:14:08.943Z,3.67
2022-10-11T02:17:18.074Z,2.95
2022-10-11T02:20:26.168Z,4.38
2022-10-11T02:23:35.238Z,3.10
2022-10-11T02:26:43.790Z,3.97
2022-10-11T02:29:51.346Z,2.90
2022-10-11T02:32:57.303Z,3.13
2022-10-11T02:36:10.978Z,2.63
2022-10-11T02:39:23.418Z,3.38
2022-10-11T02:42:33.857Z,3.60
2022-10-11T02:45:51.165Z,3.75
2022-10-11T02:48:55.392Z,4.55
2022-10-11T02:51:59.986Z,3.28
2022-10-11T02:55:04.945Z,4.10
2022-10-11T02:58:09.061Z,4.53
2022-10-11T03:01:13.539Z,3.30
2022-10-11T03:07:22.175Z,5.93
2022-10-11T03:10:26.599Z,4.78
2022-10-11T03:13:30.876Z,3.28
2022-10-11T03:16:35.372Z,5.43
2022-10-11T03:19:39.846Z,3.50
2022-10-11T03:22:44.309Z,5.25
2022-10-11T03:25:48.798Z,3.30
2022-10-11T03:28:53.186Z,4.13
2022-10-11T03:31:57.519Z,4.57
2022-10-11T03:35:02.343Z,4.07
2022-10-11T03:38:11.104Z,4.93
2022-10-11T03:41:17.296Z,4.00
2022-10-11T03:44:21.798Z,5.25
2022-10-11T03:47:26.189Z,3.33
2022-10-11T03:50:31.324Z,3.22
2022-10-11T03:56:39.581Z,3.60
2022-10-11T03:59:44.312Z,4.95
2022-10-11T04:02:48.715Z,3.70
2022-10-11T04:05:53.042Z,3.97
2022-10-11T04:08:57.293Z,4.63
2022-10-11T04:12:01.750Z,5.25
2022-10-11T04:15:07.497Z,4.53
2022-10-11T04:18:12.019Z,4.78
2022-10-11T04:21:16.675Z,3.95
2022-10-11T04:24:20.802Z,3.90
2022-10-11T04:27:28.718Z,4.90
2022-10-11T04:30:33.252Z,4.78
2022-10-11T04:33:37.686Z,4.80
2022-10-11T04:36:45.246Z,3.22
2022-10-11T04:39:52.560Z,4.13
2022-10-11T04:42:57.106Z,3.85
2022-10-11T04:46:01.699Z,3.58
2022-10-11T04:49:06.300Z,5.03
2022-10-11T04:52:10.737Z,4.10
2022-10-11T04:55:15.076Z,4.63
2022-10-11T04:58:19.567Z,4.25
2022-10-11T05:01:23.870Z,4.57
2022-10-11T05:04:28.626Z,4.40
2022-10-11T05:07:33.100Z,4.22
2022-10-11T05:10:37.389Z,4.30
2022-10-11T05:13:41.958Z,4.38
2022-10-11T05:16:46.411Z,3.60
2022-10-11T05:19:50.875Z,5.80
2022-10-11T05:22:55.181Z,5.50
2022-10-11T05:26:00.565Z,5.03
2022-10-11T05:29:05.039Z,5.78
2022-10-11T05:32:09.688Z,3.58
2022-10-11T05:35:14.568Z,3.00
2022-10-11T05:38:19.043Z,4.75
2022-10-11T05:41:23.211Z,3.80
2022-10-11T05:44:27.763Z,5.95
2022-10-11T05:47:32.524Z,3.53
2022-10-11T05:50:37.498Z,3.75
2022-10-11T05:53:41.818Z,3.70
2022-10-11T05:56:45.913Z,3.30
2022-10-11T05:59:50.420Z,4.10
2022-10-11T06:02:54.816Z,4.78
2022-10-11T06:06:02.662Z,5.53
2022-10-11T06:09:07.452Z,3.60
2022-10-11T06:12:12.115Z,3.90
2022-10-11T06:15:17.426Z,4.22
2022-10-11T06:18:21.839Z,5.07
2022-10-11T06:21:26.427Z,4.25
2022-10-11T06:24:31.046Z,3.55
2022-10-11T06:27:35.556Z,4.53
2022-10-11T06:30:39.908Z,4.47
2022-10-11T06:33:44.217Z,3.67
2022-10-11T06:36:48.649Z,4.10
2022-10-11T06:39:53.165Z,4.53
2022-10-11T06:42:57.895Z,3.67
2022-10-11T06:46:02.419Z,4.80
2022-10-11T06:49:07.771Z,3.90
2022-10-11T06:52:12.328Z,4.90
2022-10-11T06:55:16.932Z,3.97
2022-10-11T07:01:27.098Z,3.83
2022-10-11T07:04:33.737Z,4.25
2022-10-11T07:07:37.933Z,3.55
2022-10-11T07:10:42.330Z,5.82
2022-10-11T07:13:51.625Z,4.93
2022-10-11T07:16:56.121Z,4.13
2022-10-11T07:20:00.698Z,4.22
2022-10-11T07:23:05.029Z,4.43
2022-10-11T07:26:10.877Z,4.60
2022-10-11T07:29:14.799Z,4.75
2022-10-11T07:32:19.119Z,3.72
2022-10-11T07:35:23.520Z,3.78
2022-10-11T07:38:28.117Z,3.65
2022-10-11T07:41:32.648Z,4.65
2022-10-11T07:44:36.848Z,3.95
2022-10-11T07:47:41.149Z,3.95
2022-10-11T07:50:45.597Z,3.70
2022-10-11T07:53:52.562Z,3.63
2022-10-11T07:56:57.074Z,3.95
2022-10-11T08:00:01.502Z,4.38
2022-10-11T08:03:15.934Z,2.85
2022-10-11T08:06:23.027Z,3.05
2022-10-11T08:09:28.022Z,2.97
2022-10-11T08:12:32.376Z,3.00
2022-10-11T08:15:36.811Z,3.60
2022-10-11T08:18:41.556Z,3.13
2022-10-11T08:21:45.953Z,3.40
2022-10-11T08:27:55.330Z,4.40
2022-10-11T08:30:59.726Z,4.13
2022-10-11T08:34:04.152Z,4.43
2022-10-11T08:37:08.615Z,3.08
2022-10-11T08:40:17.241Z,3.97
2022-10-11T08:43:47.975Z,4.28
2022-10-11T08:47:01.769Z,3.47
2022-10-11T08:50:12.034Z,4.55
2022-10-11T08:53:48.958Z,2.97
2022-10-11T08:56:53.376Z,5.18
2022-10-11T09:03:23.892Z,3.72
2022-10-11T09:06:37.200Z,3.85
2022-10-11T09:10:09.400Z,3.58
2022-10-11T09:13:19.770Z,2.55
2022-10-11T09:16:47.758Z,3.22
2022-10-11T09:19:57.719Z,4.07
2022-10-11T09:23:27.360Z,3.78
2022-10-11T09:26:51.799Z,3.35
2022-10-11T09:30:14.902Z,3.63
2022-10-11T09:33:34.681Z,3.95
2022-10-11T09:36:47.164Z,3.63
2022-10-11T09:39:57.336Z,4.05
2022-10-11T09:43:01.709Z,3.67
2022-10-11T09:46:42.357Z,3.13
2022-10-11T09:49:58.616Z,3.88
2022-10-11T09:53:07.825Z,3.85
2022-10-11T09:56:13.135Z,3.13
2022-10-11T10:02:29.816Z,4.00
2022-10-11T10:05:37.509Z,3.40
2022-10-11T10:08:43.297Z,3.65
2022-10-11T10:11:47.730Z,4.18
2022-10-11T10:15:04.994Z,3.88
2022-10-11T10:18:24.455Z,3.60
2022-10-11T10:21:34.424Z,2.60
2022-10-11T10:24:42.870Z,2.70
2022-10-11T10:28:00.522Z,3.15
2022-10-11T10:31:20.681Z,2.47
2022-10-11T10:34:33.370Z,2.67
2022-10-11T10:37:58.981Z,2.03
2022-10-11T10:41:06.635Z,3.15
2022-10-11T10:44:11.715Z,2.63
2022-10-11T10:47:31.444Z,3.03
2022-10-11T10:50:55.902Z,2.92
2022-10-11T10:54:29.139Z,2.80
2022-10-11T10:58:05.367Z,2.17
2022-10-11T11:01:33.149Z,2.55
2022-10-11T11:04:38.275Z,2.72
2022-10-11T11:08:06.357Z,2.92
2022-10-11T11:11:44.472Z,2.30
2022-10-11T11:15:33.170Z,3.30
2022-10-11T11:18:51.250Z,1.95
2022-10-11T11:22:04.912Z,2.88
2022-10-11T11:25:32.014Z,2.47
2022-10-11T11:28:54.870Z,2.47
2022-10-11T11:32:18.038Z,2.90
2022-10-11T11:35:42.518Z,2.33
2022-10-11T11:38:55.581Z,3.30
2022-10-11T11:42:15.504Z,2.00
2022-10-11T11:46:01.127Z,2.42
2022-10-11T11:49:13.846Z,2.60
2022-10-11T11:52:41.583Z,1.83
2022-10-11T11:55:59.710Z,1.58
2022-10-11T11:59:28.812Z,2.38
2022-10-11T12:02:33.508Z,1.70
2022-10-11T12:05:38.210Z,2.80
2022-10-11T12:08:46.672Z,1.73
2022-10-11T12:11:56.386Z,2.70
2022-10-11T12:15:19.794Z,1.75
2022-10-11T12:18:24.672Z,1.88
2022-10-11T12:21:36.683Z,2.67
2022-10-11T12:24:59.416Z,1.85
2022-10-11T12:28:42.358Z,2.33
2022-10-11T12:32:11.358Z,2.50
2022-10-11T12:35:31.309Z,1.90
2022-10-11T12:38:40.071Z,2.50
2022-10-11T12:41:50.508Z,1.73
2022-10-11T12:45:13.677Z,1.80
2022-10-11T12:48:53.621Z,2.90
2022-10-11T12:52:03.733Z,2.17
2022-10-11T12:55:59.964Z,2.65
2022-10-11T12:59:06.561Z,2.58
2022-10-11T13:02:42.424Z,3.20
2022-10-11T13:05:51.003Z,3.35
2022-10-11T13:09:10.095Z,1.77
2022-10-11T13:12:23.404Z,2.13
2022-10-11T13:15:29.057Z,2.15
2022-10-11T13:18:33.617Z,2.10
2022-10-11T13:24:43.967Z,2.88
2022-10-11T13:27:50.230Z,2.90
2022-10-11T13:30:57.479Z,1.85
2022-10-11T13:34:01.680Z,2.70
2022-10-11T13:37:06.743Z,1.52
2022-10-11T13:40:16.999Z,1.80
2022-10-11T13:43:24.929Z,2.28
2022-10-11T13:46:31.256Z,2.30
2022-10-11T13:49:37.739Z,2.95
2022-10-11T13:53:11.429Z,1.95
2022-10-11T13:56:19.624Z,2.60
2022-10-11T13:59:27.384Z,2.60
2022-10-11T14:02:32.903Z,1.95
2022-10-11T14:05:41.192Z,1.45
2022-10-11T14:08:50.181Z,3.25
2022-10-11T14:11:55.155Z,1.90
2022-10-11T14:15:01.378Z,2.55
2022-10-11T14:18:31.685Z,2.08
2022-10-11T14:21:51.761Z,2.65
2022-10-11T14:24:56.012Z,2.00
2022-10-11T14:28:01.188Z,2.80
2022-10-11T14:31:05.649Z,1.90
2022-10-11T14:37:17.633Z,2.30
2022-10-11T14:40:25.818Z,3.45
2022-10-11T14:43:30.472Z,2.58
2022-10-11T14:49:45.744Z,3.17
2022-10-11T14:52:50.300Z,2.80
2022-10-11T14:55:55.876Z,2.88
2022-10-11T14:59:00.212Z,2.33
2022-10-11T15:06:21.981Z,3.85
2022-10-11T15:09:26.253Z,2.97
2022-10-11T15:12:30.452Z,2.03
2022-10-11T15:15:36.880Z,1.52
2022-10-11T15:18:41.271Z,2.05
2022-10-11T15:21:46.528Z,3.15
2022-10-11T15:24:51.874Z,2.08
2022-10-11T15:27:57.592Z,2.92
2022-10-11T15:31:02.011Z,2.95
2022-10-11T15:34:06.218Z,1.83
2022-10-11T15:37:12.202Z,2.67
2022-10-11T15:40:24.375Z,2.10
2022-10-11T15:43:30.123Z,3.42
2022-10-11T15:46:35.029Z,2.08
2022-10-11T15:49:39.298Z,3.72
2022-10-11T15:52:44.651Z,2.80
2022-10-11T15:55:54.008Z,2.33
2022-10-11T15:58:58.744Z,2.00
2022-10-11T16:02:03.288Z,2.08
2022-10-11T16:05:08.232Z,2.33
2022-10-11T16:08:13.172Z,1.90
2022-10-11T16:11:17.806Z,2.38
2022-10-11T16:14:22.297Z,3.22
2022-10-11T16:17:26.928Z,1.80
2022-10-11T16:20:31.415Z,1.85
2022-10-11T16:23:36.635Z,1.75
2022-10-11T16:26:40.703Z,2.15
2022-10-11T16:29:45.303Z,1.77
2022-10-11T16:32:49.996Z,3.42
2022-10-11T16:35:54.321Z,2.00
2022-10-11T16:39:00.341Z,2.75
2022-10-11T16:42:05.323Z,2.28
2022-10-11T16:45:10.293Z,1.67
2022-10-11T16:48:15.048Z,2.50
2022-10-11T16:51:19.687Z,2.35
2022-10-11T16:54:24.264Z,2.65
2022-10-11T17:00:33.174Z,1.75
2022-10-11T17:03:37.926Z,1.48
2022-10-11T17:06:43.959Z,3.47
2022-10-11T17:09:49.542Z,2.70
2022-10-11T17:12:55.344Z,1.73
2022-10-11T17:16:00.342Z,2.42
2022-10-11T17:19:08.914Z,2.58
2022-10-11T17:22:16.190Z,1.50
2022-10-11T17:25:21.730Z,2.05
2022-10-11T17:31:31.244Z,2.45
2022-10-11T17:34:36.492Z,2.03
2022-10-11T17:37:41.100Z,2.10
2022-10-11T17:43:50.992Z,2.03
2022-10-11T17:46:55.210Z,1.77
2022-10-11T17:49:59.587Z,1.50
2022-10-11T17:53:04.164Z,2.65
2022-10-11T17:56:11.115Z,1.48
2022-10-11T17:59:18.123Z,2.10
2022-10-11T18:02:22.374Z,2.33
2022-10-11T18:05:28.487Z,3.63
2022-10-11T18:08:40.759Z,2.10
2022-10-11T18:15:08.725Z,1.67
2022-10-11T18:18:21.946Z,2.75
2022-10-11T18:24:51.013Z,1.70
2022-10-11T18:27:59.340Z,2.75
2022-10-11T18:31:13.618Z,2.53
2022-10-11T18:41:10.130Z,2.38
2022-10-11T18:44:16.241Z,1.92
2022-10-11T18:47:20.659Z,1.85
2022-10-11T18:53:32.011Z,2.37
2022-10-11T18:56:37.195Z,2.33
2022-10-11T18:59:42.482Z,2.35
2022-10-11T19:02:47.368Z,1.45
2022-10-11T19:05:51.694Z,1.88
2022-10-11T19:09:21.502Z,2.03
2022-10-11T19:12:26.204Z,1.35
2022-10-11T19:15:35.966Z,3.28
2022-10-11T19:18:44.086Z,1.67
2022-10-11T19:21:50.227Z,2.30
2022-10-11T19:24:55.318Z,2.25
2022-10-11T19:27:59.943Z,2.03
2022-10-11T19:31:06.519Z,2.28
2022-10-11T19:34:16.519Z,1.95
2022-10-11T19:37:21.916Z,2.90
2022-10-11T19:40:35.098Z,2.90
2022-10-11T19:47:13.191Z,3.13
2022-10-11T19:50:19.665Z,2.67
2022-10-11T19:53:25.400Z,1.98
2022-10-11T19:56:32.847Z,2.58
2022-10-11T19:59:38.385Z,3.42
2022-10-11T20:02:45.388Z,1.83
2022-10-11T20:05:52.264Z,2.92
2022-10-11T20:09:23.855Z,2.30
2022-10-11T20:12:31.576Z,2.80
2022-10-11T20:15:40.686Z,2.45
2022-10-11T20:18:48.622Z,2.67
2022-10-11T20:21:55.658Z,1.77
2022-10-11T20:25:03.957Z,2.35
2022-10-11T20:28:10.600Z,2.97
2022-10-11T20:31:26.728Z,2.42
2022-10-11T20:34:32.270Z,2.97
2022-10-11T20:37:40.562Z,2.83
2022-10-11T20:40:45.646Z,2.80
2022-10-11T20:47:12.168Z,2.85
2022-10-11T20:50:22.107Z,2.88
2022-10-11T20:53:28.426Z,1.98
2022-10-11T20:56:33.903Z,2.85
2022-10-11T20:59:38.285Z,2.05
2022-10-11T21:02:43.027Z,2.42
2022-10-11T21:05:47.230Z,3.03
2022-10-11T21:08:51.725Z,3.67
2022-10-11T21:11:56.226Z,2.13
2022-10-11T21:15:00.619Z,3.28
2022-10-11T21:18:04.846Z,2.10
2022-10-11T21:21:14.028Z,2.78
2022-10-11T21:24:18.469Z,3.00
2022-10-11T21:27:24.693Z,2.42
2022-10-11T21:30:29.322Z,2.38
2022-10-11T21:33:34.619Z,2.33
2022-10-11T21:36:39.003Z,2.47
2022-10-11T21:39:43.393Z,2.42
2022-10-11T21:42:47.915Z,3.22
2022-10-11T21:45:52.210Z,2.17
2022-10-11T21:48:57.179Z,2.97
2022-10-11T21:52:01.839Z,2.45
2022-10-11T21:55:06.400Z,2.45
2022-10-11T21:58:10.302Z,2.77
2022-10-11T22:01:16.061Z,2.08
2022-10-11T22:04:20.659Z,2.88
2022-10-11T22:07:25.086Z,2.47
2022-10-11T22:10:29.479Z,2.55
2022-10-11T22:13:34.695Z,1.20
2022-10-11T22:16:39.093Z,2.53
2022-10-11T22:19:43.540Z,2.30
2022-10-11T22:22:48.022Z,3.20
2022-10-11T22:25:52.491Z,2.03
2022-10-11T22:28:57.969Z,2.33
2022-10-11T22:32:02.115Z,1.90
2022-10-11T22:35:06.753Z,1.80
2022-10-11T22:38:11.104Z,2.30
2022-10-11T22:41:15.415Z,2.50
2022-10-11T22:44:19.722Z,2.58
2022-10-11T22:47:24.099Z,2.00
2022-10-11T22:50:28.494Z,2.53
2022-10-11T22:53:33.026Z,2.50
2022-10-11T22:56:37.483Z,2.83
2022-10-11T22:59:41.991Z,2.45
2022-10-11T23:02:46.718Z,1.90
2022-10-11T23:08:59.743Z,2.38
2022-10-11T23:12:04.371Z,3.65
2022-10-11T23:15:09.146Z,2.15
2022-10-11T23:18:15.748Z,2.08
2022-10-11T23:21:20.515Z,2.30
2022-10-11T23:24:24.712Z,3.17
2022-10-11T23:27:30.223Z,1.85
2022-10-11T23:30:34.481Z,2.47
2022-10-11T23:33:38.966Z,1.60
2022-10-11T23:36:43.609Z,2.10
2022-10-11T23:39:48.091Z,2.97
2022-10-11T23:42:52.372Z,2.17
2022-10-11T23:45:57.284Z,1.63
2022-10-11T23:49:02.030Z,2.72
2022-10-11T23:52:06.543Z,1.70
2022-10-11T23:55:11.077Z,2.63
2022-10-11T23:58:15.459Z,2.17
